Terminal Aerodrome Forecast
Issued by NWS Chicago, IL

Home | Current Version | Previous Version | Graphics & Text | Print | Product List | Glossary Off
Versions: 1 2 3 4 5 6 7 8 9 10 11 12 13 14 15 16 17 18 19 20 21 22 23 24 25 26 27 28 29 30 31 32 33

000
FTUS43 KLOT 010859 AAA
TAFRFD
TAF AMD
KRFD 010859Z 0109/0206 VRB03KT 3SM BR SCT050
      TEMPO 0110/0112 2SM BR
     FM011300 22009KT P6SM SCT050
     FM020300 23006KT 6SM BR FEW040 SCT250=

USA.gov is the U.S. government's official web portal to all federal, state and local government web resources and services.